createdAt,value
2018-08-14T00:00:59.668Z,15.23
2018-08-14T00:03:32.574Z,17.40
2018-08-14T00:06:05.717Z,22.23
2018-08-14T00:08:38.756Z,12.40
2018-08-14T00:11:13.122Z,16.57
2018-08-14T00:13:46.441Z,14.17
2018-08-14T00:16:20.160Z,15.40
2018-08-14T00:18:53.588Z,19.20
2018-08-14T00:21:27.101Z,19.27
2018-08-14T00:24:01.485Z,16.40
2018-08-14T00:26:35.655Z,14.23
2018-08-14T00:29:10.187Z,20.27
2018-08-14T00:31:43.646Z,16.50
2018-08-14T00:34:17.065Z,14.63
2018-08-14T00:36:50.705Z,16.07
2018-08-14T00:39:24.220Z,12.90
2018-08-14T00:41:59.383Z,13.30
2018-08-14T00:44:32.895Z,17.27
2018-08-14T00:47:06.435Z,14.07
2018-08-14T00:49:39.942Z,18.17
2018-08-14T00:52:13.252Z,17.87
2018-08-14T00:54:46.724Z,18.37
2018-08-14T00:57:20.706Z,21.90
2018-08-14T00:59:55.136Z,23.10
2018-08-14T01:02:28.075Z,24.73
2018-08-14T01:05:05.202Z,19.75
2018-08-14T01:07:38.073Z,22.80
2018-08-14T01:10:14.177Z,22.10
2018-08-14T01:12:50.279Z,25.83
2018-08-14T01:15:25.022Z,24.50
2018-08-14T01:17:58.594Z,31.00
2018-08-14T01:20:33.355Z,27.53
2018-08-14T01:23:06.477Z,41.37
2018-08-14T01:25:40.059Z,42.37
2018-08-14T01:28:13.077Z,29.37
2018-08-14T01:30:46.052Z,36.60
2018-08-14T01:33:18.924Z,37.60
2018-08-14T01:35:51.801Z,33.47
2018-08-14T01:38:26.142Z,36.30
2018-08-14T01:40:59.184Z,45.53
2018-08-14T01:43:32.127Z,50.30
2018-08-14T01:46:05.042Z,51.87
2018-08-14T01:48:37.902Z,56.40
2018-08-14T01:51:11.903Z,55.45
2018-08-14T01:53:44.857Z,66.43
2018-08-14T01:56:18.218Z,76.00
2018-08-14T01:58:51.204Z,66.60
2018-08-14T02:01:24.083Z,62.73
2018-08-14T02:03:56.954Z,63.50
2018-08-14T02:06:29.952Z,62.80
2018-08-14T02:09:03.385Z,63.07
2018-08-14T02:11:36.438Z,67.53
2018-08-14T02:14:09.919Z,66.13
2018-08-14T02:16:42.866Z,60.23
2018-08-14T02:19:15.958Z,63.20
2018-08-14T02:21:49.524Z,61.47
2018-08-14T02:24:22.463Z,76.10
2018-08-14T02:26:55.314Z,74.50
2018-08-14T02:29:28.229Z,65.67
2018-08-14T02:32:01.259Z,71.80
2018-08-14T02:34:34.218Z,68.67
2018-08-14T02:37:07.586Z,72.80
2018-08-14T02:39:40.772Z,70.50
2018-08-14T02:42:13.754Z,66.60
2018-08-14T02:44:46.649Z,67.60
2018-08-14T02:47:19.594Z,57.97
2018-08-14T02:49:52.575Z,55.73
2018-08-14T02:52:26.084Z,64.23
2018-08-14T02:54:58.970Z,55.60
2018-08-14T02:57:31.869Z,53.08
2018-08-14T03:00:04.911Z,58.97
2018-08-14T03:02:37.764Z,55.03
2018-08-14T03:05:11.600Z,51.73
2018-08-14T03:07:44.425Z,52.43
2018-08-14T03:10:17.629Z,46.50
2018-08-14T03:12:50.552Z,60.97
2018-08-14T03:15:25.158Z,43.83
2018-08-14T03:17:59.565Z,49.20
2018-08-14T03:20:32.550Z,53.70
2018-08-14T03:23:06.374Z,67.47
2018-08-14T03:25:39.548Z,69.00
2018-08-14T03:28:12.436Z,66.50
2018-08-14T03:30:45.486Z,77.27
2018-08-14T03:33:18.362Z,75.77
2018-08-14T03:35:51.653Z,79.27
2018-08-14T03:38:24.644Z,81.73
2018-08-14T03:40:58.177Z,83.73
2018-08-14T03:43:31.129Z,85.10
2018-08-14T03:46:04.025Z,88.20
2018-08-14T03:48:37.607Z,85.97
2018-08-14T03:51:11.785Z,91.63
2018-08-14T03:53:45.432Z,92.50
2018-08-14T03:56:18.339Z,99.07
2018-08-14T03:58:51.324Z,93.93
2018-08-14T04:01:24.220Z,91.93
2018-08-14T04:03:57.189Z,99.07
2018-08-14T04:06:31.300Z,105.15
2018-08-14T04:09:04.269Z,105.33
2018-08-14T04:11:37.104Z,101.93
2018-08-14T04:14:11.230Z,99.83
2018-08-14T04:16:44.048Z,92.10
2018-08-14T04:19:17.915Z,100.27
2018-08-14T04:21:50.862Z,90.43
2018-08-14T04:24:23.769Z,104.37
2018-08-14T04:26:56.783Z,98.10
2018-08-14T04:29:29.774Z,105.27
2018-08-14T04:32:04.019Z,88.67
2018-08-14T04:34:36.888Z,93.23
2018-08-14T04:37:11.235Z,79.67
2018-08-14T04:39:44.138Z,71.03
2018-08-14T04:42:17.094Z,70.93
2018-08-14T04:44:50.018Z,69.83
2018-08-14T04:47:23.092Z,68.70
2018-08-14T04:49:56.746Z,57.73
2018-08-14T04:52:29.704Z,56.43
2018-08-14T04:55:02.795Z,69.20
2018-08-14T04:57:35.987Z,70.87
2018-08-14T05:00:11.405Z,71.20
2018-08-14T05:02:44.919Z,73.77
2018-08-14T05:05:19.243Z,78.73
2018-08-14T05:07:52.075Z,72.73
2018-08-14T05:10:25.070Z,78.50
2018-08-14T05:12:57.973Z,71.43
2018-08-14T05:15:30.869Z,70.10
2018-08-14T05:18:03.941Z,78.55
2018-08-14T05:20:37.438Z,71.73
2018-08-14T05:23:10.305Z,69.33
2018-08-14T05:25:43.201Z,75.93
2018-08-14T05:28:16.166Z,74.73
2018-08-14T05:30:49.127Z,65.97
2018-08-14T05:33:22.325Z,72.00
2018-08-14T05:35:56.223Z,68.80
2018-08-14T05:38:29.145Z,71.43
2018-08-14T05:41:02.135Z,71.83
2018-08-14T05:43:35.098Z,67.20
2018-08-14T05:46:08.381Z,64.20
2018-08-14T05:48:41.337Z,61.60
2018-08-14T05:51:15.239Z,67.70
2018-08-14T05:53:48.202Z,61.33
2018-08-14T05:56:21.819Z,62.83
2018-08-14T05:58:54.813Z,60.37
2018-08-14T06:01:27.730Z,68.37
2018-08-14T06:04:01.317Z,59.20
2018-08-14T06:06:34.284Z,78.93
2018-08-14T06:09:09.706Z,68.47
2018-08-14T06:11:43.022Z,72.17
2018-08-14T06:14:16.100Z,73.87
2018-08-14T06:16:50.251Z,79.97
2018-08-14T06:19:23.204Z,84.25
2018-08-14T06:21:56.345Z,76.20
2018-08-14T06:24:29.360Z,76.73
2018-08-14T06:27:02.285Z,81.57
2018-08-14T06:29:35.722Z,75.57
2018-08-14T06:32:09.865Z,82.83
2018-08-14T06:34:43.787Z,79.40
2018-08-14T06:37:16.705Z,106.73
2018-08-14T06:39:49.613Z,83.27
2018-08-14T06:42:23.120Z,93.93
2018-08-14T06:44:56.006Z,89.60
2018-08-14T06:47:29.427Z,96.97
2018-08-14T06:50:02.314Z,103.17
2018-08-14T06:52:35.383Z,105.30
2018-08-14T06:55:09.702Z,94.87
2018-08-14T06:57:44.815Z,114.03
2018-08-14T07:00:21.683Z,115.07
2018-08-14T07:02:54.614Z,102.53
2018-08-14T07:05:27.586Z,121.47
2018-08-14T07:08:00.553Z,117.53
2018-08-14T07:10:33.423Z,129.03
2018-08-14T07:13:09.208Z,120.57
2018-08-14T07:15:42.098Z,124.47
2018-08-14T07:18:15.257Z,128.90
2018-08-14T07:20:48.189Z,120.67
2018-08-14T07:23:21.091Z,119.57
2018-08-14T07:25:54.050Z,118.90
2018-08-14T07:28:27.077Z,111.60
2018-08-14T07:31:00.253Z,118.73
2018-08-14T07:33:33.146Z,109.20
2018-08-14T07:36:06.072Z,95.33
2018-08-14T07:38:39.976Z,98.37
2018-08-14T07:41:12.901Z,99.23
2018-08-14T07:43:46.269Z,83.40
2018-08-14T07:46:19.289Z,86.40
2018-08-14T07:48:52.061Z,90.87
2018-08-14T07:51:24.944Z,83.97
2018-08-14T07:53:57.889Z,82.77
2018-08-14T07:56:30.843Z,88.77
2018-08-14T07:59:03.629Z,83.60
2018-08-14T08:01:36.662Z,87.63
2018-08-14T08:04:09.521Z,88.27
2018-08-14T08:06:42.479Z,85.37
2018-08-14T08:09:16.227Z,88.63
2018-08-14T08:11:49.209Z,82.47
2018-08-14T08:14:22.349Z,88.67
2018-08-14T08:16:55.426Z,82.70
2018-08-14T08:19:28.271Z,89.33
2018-08-14T08:22:01.220Z,90.97
2018-08-14T08:24:34.219Z,77.83
2018-08-14T08:27:07.651Z,79.80
2018-08-14T08:29:40.503Z,88.47
2018-08-14T08:32:14.091Z,83.13
2018-08-14T08:34:46.984Z,78.37
2018-08-14T08:37:20.632Z,83.00
2018-08-14T08:39:53.562Z,90.63
2018-08-14T08:42:26.674Z,79.97
2018-08-14T08:45:00.197Z,83.03
2018-08-14T08:47:33.134Z,74.53
2018-08-14T08:50:06.123Z,68.20
2018-08-14T08:52:39.163Z,69.50
2018-08-14T08:55:13.436Z,70.97
2018-08-14T08:57:47.214Z,77.20
2018-08-14T09:00:20.569Z,63.05
2018-08-14T09:02:53.553Z,66.03
2018-08-14T09:05:26.465Z,65.20
2018-08-14T09:07:59.426Z,66.30
2018-08-14T09:10:33.018Z,55.90
2018-08-14T09:13:06.116Z,58.83
2018-08-14T09:15:40.841Z,53.33
2018-08-14T09:18:14.773Z,54.23
2018-08-14T09:20:52.154Z,60.20
2018-08-14T09:23:25.143Z,44.15
2018-08-14T09:25:58.106Z,47.57
2018-08-14T09:28:31.852Z,47.15
2018-08-14T09:31:04.794Z,51.80
2018-08-14T09:33:37.727Z,48.03
2018-08-14T09:36:10.755Z,36.77
2018-08-14T09:38:44.133Z,38.97
2018-08-14T09:41:17.803Z,39.77
2018-08-14T09:43:50.682Z,37.00
2018-08-14T09:46:23.732Z,41.60
2018-08-14T09:48:56.624Z,33.03
2018-08-14T09:51:30.020Z,34.25
2018-08-14T09:54:03.078Z,36.93
2018-08-14T09:56:36.178Z,41.73
2018-08-14T09:59:09.536Z,42.63
2018-08-14T10:02:46.393Z,37.67
2018-08-14T10:05:23.542Z,37.90
2018-08-14T10:08:00.987Z,49.37
2018-08-14T10:10:33.851Z,40.20
2018-08-14T10:13:06.773Z,36.23
2018-08-14T10:15:39.737Z,37.40
2018-08-14T10:18:19.542Z,43.70
2018-08-14T10:20:53.242Z,39.80
2018-08-14T10:23:26.809Z,36.50
2018-08-14T10:26:00.624Z,38.87
2018-08-14T10:28:33.663Z,42.43
2018-08-14T10:31:06.747Z,42.30
2018-08-14T10:33:40.880Z,38.83
2018-08-14T10:36:14.805Z,38.67
2018-08-14T10:38:47.691Z,33.20
2018-08-14T10:41:20.991Z,40.07
2018-08-14T10:43:53.896Z,31.17
2018-08-14T10:46:27.305Z,25.93
2018-08-14T10:49:00.323Z,33.33
2018-08-14T10:51:33.245Z,33.73
2018-08-14T10:54:10.318Z,27.00
2018-08-14T10:56:43.355Z,19.63
2018-08-14T10:59:16.151Z,47.63
2018-08-14T11:01:49.046Z,23.23
2018-08-14T11:04:22.609Z,28.90
2018-08-14T11:06:56.449Z,20.63
2018-08-14T11:09:29.478Z,20.10
2018-08-14T11:12:06.744Z,17.40
2018-08-14T11:14:39.883Z,25.57
2018-08-14T11:17:15.214Z,19.80
2018-08-14T11:19:48.128Z,24.50
2018-08-14T11:22:21.228Z,19.57
2018-08-14T11:24:54.315Z,23.27
2018-08-14T11:27:27.405Z,20.45
2018-08-14T11:30:00.698Z,24.50
2018-08-14T11:32:33.592Z,26.90
2018-08-14T11:35:07.439Z,17.03
2018-08-14T11:37:40.617Z,22.73
2018-08-14T11:40:15.373Z,24.03
2018-08-14T11:42:48.535Z,25.87
2018-08-14T11:45:27.468Z,22.73
2018-08-14T11:48:00.895Z,27.67
2018-08-14T11:50:34.230Z,22.87
2018-08-14T11:53:07.246Z,22.33
2018-08-14T11:55:40.250Z,24.27
2018-08-14T11:58:13.174Z,28.97
2018-08-14T12:00:47.242Z,28.87
2018-08-14T12:03:20.175Z,32.13
2018-08-14T12:05:53.154Z,32.43
2018-08-14T12:08:26.175Z,32.00
2018-08-14T12:10:59.370Z,31.50
2018-08-14T12:13:32.313Z,33.18
2018-08-14T12:16:05.236Z,32.53
2018-08-14T12:18:38.379Z,24.07
2018-08-14T12:21:11.428Z,28.53
2018-08-14T12:23:44.319Z,20.30
2018-08-14T12:26:17.265Z,19.70
2018-08-14T12:28:50.212Z,23.23
2018-08-14T12:31:24.508Z,27.60
2018-08-14T12:33:57.503Z,19.23
2018-08-14T12:36:30.461Z,26.73
2018-08-14T12:39:03.327Z,28.30
2018-08-14T12:41:36.270Z,30.70
2018-08-14T12:44:10.415Z,22.70
2018-08-14T12:46:43.714Z,19.80
2018-08-14T12:49:16.654Z,22.17
2018-08-14T12:51:49.585Z,25.13
2018-08-14T12:54:22.525Z,26.47
2018-08-14T12:56:58.013Z,28.07
2018-08-14T12:59:30.989Z,29.80
2018-08-14T13:02:04.129Z,25.50
2018-08-14T13:04:37.097Z,27.93
2018-08-14T13:07:10.137Z,27.80
2018-08-14T13:09:43.121Z,27.30
2018-08-14T13:12:16.025Z,28.87
2018-08-14T13:14:49.724Z,27.50
2018-08-14T13:17:22.635Z,34.27
2018-08-14T13:19:56.579Z,29.83
2018-08-14T13:22:29.533Z,28.70
2018-08-14T13:25:02.945Z,38.30
2018-08-14T13:27:37.500Z,34.67
2018-08-14T13:30:13.106Z,46.10
2018-08-14T13:32:46.114Z,37.10
2018-08-14T13:35:19.109Z,37.98
2018-08-14T13:37:52.075Z,43.50
2018-08-14T13:40:25.027Z,76.57
2018-08-14T13:42:57.936Z,95.77
2018-08-14T13:45:31.881Z,102.20
2018-08-14T13:48:04.947Z,87.17
2018-08-14T13:50:37.914Z,93.47
2018-08-14T13:53:11.117Z,79.90
2018-08-14T13:55:44.096Z,96.17
2018-08-14T13:58:18.362Z,93.10
2018-08-14T14:00:52.416Z,98.50
2018-08-14T14:03:25.280Z,107.05
2018-08-14T14:05:58.260Z,105.13
2018-08-14T14:08:31.236Z,93.10
2018-08-14T14:11:05.737Z,107.50
2018-08-14T14:13:38.666Z,83.87
2018-08-14T14:16:11.695Z,96.17
2018-08-14T14:18:44.695Z,86.97
2018-08-14T14:21:19.775Z,82.23
2018-08-14T14:23:52.749Z,89.57
2018-08-14T14:26:27.894Z,80.77
2018-08-14T14:29:02.272Z,97.00
2018-08-14T14:31:36.225Z,90.10
2018-08-14T14:34:09.113Z,99.90
2018-08-14T14:36:42.007Z,108.30
2018-08-14T14:39:15.737Z,120.23
2018-08-14T14:41:49.336Z,146.23
2018-08-14T14:44:22.282Z,128.07
2018-08-14T14:46:56.148Z,154.87
2018-08-14T14:49:28.964Z,155.57
2018-08-14T14:52:01.940Z,139.97
2018-08-14T14:54:37.536Z,154.27
2018-08-14T14:57:10.706Z,145.47
2018-08-14T14:59:44.163Z,151.03
2018-08-14T15:02:17.216Z,153.00
2018-08-14T15:04:51.485Z,135.23
2018-08-14T15:07:26.353Z,152.85
2018-08-14T15:10:00.497Z,160.90
2018-08-14T15:12:36.027Z,129.93
2018-08-14T15:15:09.323Z,142.40
2018-08-14T15:17:43.154Z,137.83
2018-08-14T15:20:22.156Z,133.23
2018-08-14T15:22:55.997Z,140.83
2018-08-14T15:25:30.459Z,138.53
2018-08-14T15:29:11.275Z,132.93
2018-08-14T15:31:45.771Z,148.27
2018-08-14T15:34:27.577Z,141.77
2018-08-14T15:37:02.201Z,144.13
2018-08-14T15:39:35.198Z,140.20
2018-08-14T15:42:08.417Z,138.50
2018-08-14T15:44:41.398Z,128.90
2018-08-14T15:47:15.522Z,121.13
2018-08-14T15:49:48.790Z,118.00
2018-08-14T15:52:21.805Z,123.13
2018-08-14T15:54:54.719Z,122.90
2018-08-14T15:57:27.703Z,116.10
2018-08-14T16:00:03.718Z,129.73
2018-08-14T16:02:37.154Z,123.40
2018-08-14T16:05:10.092Z,127.43
2018-08-14T16:07:43.024Z,127.37
2018-08-14T16:10:16.715Z,124.20
2018-08-14T16:12:50.274Z,131.83
2018-08-14T16:15:23.959Z,120.97
2018-08-14T16:17:57.515Z,126.53
2018-08-14T16:20:30.441Z,117.13
2018-08-14T16:23:03.427Z,128.27
2018-08-14T16:25:36.451Z,117.77
2018-08-14T16:28:09.460Z,112.43
2018-08-14T16:30:42.789Z,120.20
2018-08-14T16:33:16.953Z,114.27
2018-08-14T16:35:49.889Z,109.67
2018-08-14T16:38:22.901Z,117.53
2018-08-14T16:40:55.974Z,108.03
2018-08-14T16:43:29.480Z,115.40
2018-08-14T16:46:02.420Z,109.30
2018-08-14T16:48:35.516Z,117.17
2018-08-14T16:51:08.419Z,113.33
2018-08-14T16:53:41.329Z,106.80
2018-08-14T16:56:16.252Z,111.63
2018-08-14T16:58:49.291Z,112.10
2018-08-14T17:01:24.128Z,109.47
2018-08-14T17:03:57.027Z,113.37
2018-08-14T17:06:29.961Z,106.93
2018-08-14T17:09:03.000Z,105.10
2018-08-14T17:11:37.149Z,100.20
2018-08-14T17:14:11.573Z,104.07
2018-08-14T17:16:44.550Z,101.60
2018-08-14T17:19:17.393Z,99.77
2018-08-14T17:21:47.160Z,112.80
2018-08-14T17:24:20.377Z,105.00
2018-08-14T17:26:54.008Z,98.90
2018-08-14T17:29:26.912Z,102.37
2018-08-14T17:32:01.107Z,96.83
2018-08-14T17:34:34.079Z,97.90
2018-08-14T17:37:07.949Z,93.10
2018-08-14T17:39:41.123Z,108.10
2018-08-14T17:42:14.957Z,88.47
2018-08-14T17:44:48.500Z,116.40
2018-08-14T17:47:22.251Z,84.70
2018-08-14T17:49:55.255Z,95.43
2018-08-14T17:52:29.204Z,92.95
2018-08-14T17:55:02.122Z,97.87
2018-08-14T17:57:35.435Z,88.90
2018-08-14T18:00:11.092Z,84.47
2018-08-14T18:02:44.223Z,91.87
2018-08-14T18:05:17.200Z,80.57
2018-08-14T18:07:50.082Z,88.90
2018-08-14T18:10:24.814Z,87.65
2018-08-14T18:12:57.757Z,80.27
2018-08-14T18:15:33.652Z,87.07
2018-08-14T18:18:06.504Z,88.27
2018-08-14T18:20:39.530Z,81.33
2018-08-14T18:23:12.926Z,81.87
2018-08-14T18:25:45.764Z,80.07
2018-08-14T18:28:20.321Z,80.00
2018-08-14T18:30:53.088Z,76.83
2018-08-14T18:33:26.082Z,82.63
2018-08-14T18:35:59.112Z,77.87
2018-08-14T18:38:31.983Z,74.00
2018-08-14T18:41:05.959Z,85.17
2018-08-14T18:43:38.977Z,77.27
2018-08-14T18:46:11.993Z,78.10
2018-08-14T18:48:45.625Z,79.77
2018-08-14T18:51:18.508Z,76.90
2018-08-14T18:53:52.080Z,85.50
2018-08-14T18:56:25.095Z,75.07
2018-08-14T18:58:57.994Z,80.10
2018-08-14T19:01:30.831Z,73.97
2018-08-14T19:04:04.615Z,102.20
2018-08-14T19:06:37.649Z,79.80
2018-08-14T19:09:10.952Z,80.37
2018-08-14T19:11:44.399Z,76.23
2018-08-14T19:14:18.223Z,78.03
2018-08-14T19:16:51.063Z,85.53
2018-08-14T19:19:23.981Z,80.03
2018-08-14T19:21:57.984Z,73.43
2018-08-14T19:24:32.448Z,74.97
2018-08-14T19:27:06.135Z,73.90
2018-08-14T19:29:39.039Z,72.10
2018-08-14T19:32:12.392Z,76.97
2018-08-14T19:34:45.264Z,72.90
2018-08-14T19:37:19.077Z,71.73
2018-08-14T19:39:51.965Z,76.37
2018-08-14T19:42:26.353Z,63.53
2018-08-14T19:44:59.260Z,79.93
2018-08-14T19:47:32.064Z,76.70
2018-08-14T19:50:05.408Z,71.83
2018-08-14T19:52:39.196Z,67.77
2018-08-14T19:55:15.536Z,65.77
2018-08-14T19:57:49.472Z,65.70
2018-08-14T20:00:24.941Z,66.77
2018-08-14T20:02:59.216Z,70.07
2018-08-14T20:05:33.024Z,66.82
2018-08-14T20:08:07.393Z,67.53
2018-08-14T20:10:40.288Z,64.27
2018-08-14T20:13:13.096Z,70.63
2018-08-14T20:15:50.051Z,69.93
2018-08-14T20:18:23.033Z,70.22
2018-08-14T20:20:56.347Z,85.87
2018-08-14T20:23:30.622Z,73.15
2018-08-14T20:26:04.918Z,69.93
2018-08-14T20:28:37.834Z,66.80
2018-08-14T20:31:10.754Z,68.90
2018-08-14T20:33:43.958Z,69.70
2018-08-14T20:36:17.095Z,73.23
2018-08-14T20:38:51.604Z,70.70
2018-08-14T20:41:24.678Z,75.35
2018-08-14T20:43:57.619Z,82.33
2018-08-14T20:46:31.457Z,71.03
2018-08-14T20:49:05.229Z,80.57
2018-08-14T20:51:38.609Z,79.60
2018-08-14T20:54:11.533Z,84.07
2018-08-14T20:56:44.475Z,75.50
2018-08-14T20:59:18.411Z,81.63
2018-08-14T21:01:51.528Z,79.83
2018-08-14T21:04:25.939Z,77.00
2018-08-14T21:06:59.324Z,77.40
2018-08-14T21:09:32.186Z,83.70
2018-08-14T21:12:05.145Z,85.83
2018-08-14T21:14:38.177Z,87.20
2018-08-14T21:17:11.507Z,81.47
2018-08-14T21:19:44.487Z,88.40
2018-08-14T21:22:17.839Z,83.00
2018-08-14T21:24:51.470Z,89.13
2018-08-14T21:27:24.297Z,85.28
2018-08-14T21:29:57.172Z,88.10
2018-08-14T21:32:30.020Z,81.87
2018-08-14T21:35:04.277Z,89.30
2018-08-14T21:37:37.358Z,84.13
2018-08-14T21:40:16.060Z,82.20
2018-08-14T21:42:51.018Z,78.97
2018-08-14T21:45:24.312Z,92.08
2018-08-14T21:47:58.034Z,79.60
2018-08-14T21:50:30.915Z,90.70
2018-08-14T21:53:03.948Z,100.50
2018-08-14T21:55:36.902Z,87.33
2018-08-14T21:58:09.885Z,92.33
2018-08-14T22:01:05.249Z,83.60
2018-08-14T22:03:43.071Z,80.97
2018-08-14T22:06:17.447Z,89.50
2018-08-14T22:08:50.942Z,86.13
2018-08-14T22:11:24.003Z,91.02
2018-08-14T22:13:58.573Z,88.63
2018-08-14T22:16:31.479Z,84.97
2018-08-14T22:19:05.063Z,98.77
2018-08-14T22:21:37.936Z,95.53
2018-08-14T22:24:11.210Z,105.80
2018-08-14T22:26:44.196Z,93.90
2018-08-14T22:29:17.275Z,91.93
2018-08-14T22:31:50.493Z,89.17
2018-08-14T22:34:24.365Z,101.63
2018-08-14T22:36:57.341Z,93.63
2018-08-14T22:39:30.277Z,92.03
2018-08-14T22:42:04.284Z,93.90
2018-08-14T22:44:40.675Z,87.57
2018-08-14T22:47:13.576Z,93.20
2018-08-14T22:49:46.523Z,96.90
2018-08-14T22:52:19.402Z,94.53
2018-08-14T22:54:53.027Z,91.57
2018-08-14T22:57:26.496Z,91.40
2018-08-14T23:00:05.118Z,88.73
2018-08-14T23:02:38.220Z,87.37
2018-08-14T23:05:11.500Z,82.43
2018-08-14T23:07:44.637Z,89.03
2018-08-14T23:10:18.771Z,90.20
2018-08-14T23:12:52.492Z,83.07
2018-08-14T23:15:26.023Z,98.00
2018-08-14T23:17:58.887Z,89.40
2018-08-14T23:20:31.916Z,79.10
2018-08-14T23:23:04.861Z,90.53
2018-08-14T23:25:37.778Z,90.47
2018-08-14T23:28:10.663Z,84.93
2018-08-14T23:30:43.729Z,87.80
2018-08-14T23:33:16.672Z,79.27
2018-08-14T23:35:49.682Z,80.30
2018-08-14T23:38:22.556Z,81.95
2018-08-14T23:40:58.010Z,75.63
2018-08-14T23:43:30.942Z,81.37
2018-08-14T23:46:04.265Z,79.30
2018-08-14T23:48:37.170Z,76.30
2018-08-14T23:51:10.205Z,78.45
2018-08-14T23:53:43.214Z,83.03
2018-08-14T23:56:16.217Z,80.53
2018-08-14T23:58:49.519Z,81.97
